Maersk_kyrenia — VRGM8 — position and weather

sailwx.info

Track history (hours):
 
Tides and Currents Weather Stations Pressure Air Temp Water Temp Dewpoint Dewpoint Depression Visibility Wind Speed Wind Dir Waves Ship Positions

Maersk_kyrenia

Last reported at 2014-Jul-23 00:33 UTC. Time now 2014-Jul-29 14:54 UTC.
Position N 31°04' E 032°19'.

Length 300 m; draft 14.4 m.

MMSI: 477733600.

Date/timePositionNaut miles runAvg speedWind from/ knotsBaromVisibWave heightAir tempDewpointWater temp
2014-Jul-23 00:33N 31°04' E 032°19'9 8.9
2014-Jul-22 23:33N 31°12' E 032°20'9 9.1
2014-Jul-22 22:33N 31°21' E 032°23'7 5.7
2014-Jul-22 21:24N 31°27' E 032°20'0 0.1
2014-Jul-22 20:29N 31°27' E 032°20'0 0.1
2014-Jul-22 19:33N 31°27' E 032°20'3 3.1
2014-Jul-22 18:33N 31°28' E 032°16'1515.4
2014-Jul-22 17:33N 31°39' E 032°04'1818.2
2014-Jul-22 16:34N 31°49' E 031°46'1818.5
2014-Jul-22 15:33N 31°55' E 031°26'2018.7
2014-Jul-22 14:30N 32°03' E 031°04'81919.5
2014-Jul-20 20:34N 36°09' E 015°21'2120.7
2014-Jul-20 19:34N 36°14' E 014°56'2120.7
2014-Jul-20 18:34N 36°22' E 014°32'2120.7
2014-Jul-20 17:34N 36°28' E 014°07'2120.7
2014-Jul-20 16:34N 36°34' E 013°43'2120.5
2014-Jul-20 15:34N 36°40' E 013°18'2120.8
2014-Jul-20 14:34N 36°46' E 012°53'2121.2
2014-Jul-20 13:34N 36°52' E 012°28'2820.2
2014-Jul-20 12:10N 37°02' E 011°55'22919.5
2014-Jul-20 00:26N 37°15' E 007°08'6220.0
2014-Jul-19 21:21N 37°15' E 005°50'4420.7
2014-Jul-19 19:15N 37°15' E 004°56'3419.9
2014-Jul-19 17:33N 37°15' E 004°13'2120.7
2014-Jul-19 16:33N 37°15' E 003°47'4120.4
2014-Jul-19 14:33N 37°15' E 002°56'2120.7
2014-Jul-19 13:33N 37°11' E 002°30'2120.5
2014-Jul-19 12:33N 37°06' E 002°05'2120.0
2014-Jul-19 11:31N 37°02' E 001°40'2020.6
2014-Jul-19 10:33N 36°58' E 001°15'2821.4
2014-Jul-19 09:15N 36°53' E 000°41'1521.7
2014-Jul-19 08:33N 36°49' E 000°23'2520.6
2014-Jul-19 07:19N 36°44' W 000°08'1620.9
2014-Jul-19 06:33N 36°41' W 000°28'2121.4
2014-Jul-19 05:33N 36°37' W 000°55'2421.3
2014-Jul-19 04:26N 36°30' W 001°23'1921.1
2014-Jul-19 03:33N 36°26' W 001°46'2321.1
2014-Jul-19 02:27N 36°22' W 002°14'31621.0
2014-Jul-18 11:25N 36°27' W 008°46'3920.1
2014-Jul-18 09:29N 36°44' W 009°29'2120.4
2014-Jul-18 08:26N 37°04' W 009°38'2421.1
2014-Jul-18 07:17N 37°27' W 009°45'1621.1
2014-Jul-18 06:33N 37°43' W 009°49'2221.5
2014-Jul-18 05:32N 38°04' W 009°56'80419.5
2014-Jul-16 12:17N 50°09' W 001°55'1317.3
2014-Jul-16 11:33N 50°13' W 001°35'1716.9
2014-Jul-16 10:32N 50°17' W 001°10'1817.6
2014-Jul-16 09:33N 50°22' W 000°43'1919.4
2014-Jul-16 08:34N 50°27' W 000°14'2221.5
2014-Jul-16 07:32N 50°33' E 000°19'2121.8
2014-Jul-16 06:33N 50°43' E 000°49'2121.0
2014-Jul-16 05:33N 50°56' E 001°14'1918.6
2014-Jul-16 04:33N 51°07' E 001°38'1615.7
2014-Jul-16 03:33N 51°20' E 001°52'1818.4
2014-Jul-16 02:33N 51°35' E 002°09'2720.1
2014-Jul-16 01:13N 51°55' E 002°39'1421.0
2014-Jul-16 00:33N 52°03' E 002°57'2121.3
2014-Jul-15 23:33N 52°04' E 003°31'1515.0
2014-Jul-15 22:33N 52°01' E 003°56'6 5.8
2014-Jul-15 21:34N 51°57' E 004°03'0 0.0
2014-Jul-15 20:31N 51°57' E 004°03'0 0.0
2014-Jul-15 19:28N 51°57' E 004°03'0 0.0
2014-Jul-15 18:22N 51°57' E 004°03'0 0.0
2014-Jul-15 17:25N 51°57' E 004°03'0 0.0
2014-Jul-15 16:33N 51°57' E 004°03'0 0.0
2014-Jul-15 15:27N 51°57' E 004°03'0 0.0
2014-Jul-15 14:33N 51°57' E 004°03'0 0.0
2014-Jul-15 13:29N 51°57' E 004°03'0 0.0
2014-Jul-15 12:32N 51°57' E 004°03'0 0.0
2014-Jul-15 11:20N 51°57' E 004°03'0 0.0
2014-Jul-15 10:26N 51°57' E 004°03'0 0.0
2014-Jul-15 09:26N 51°57' E 004°03'0 0.0
2014-Jul-15 08:32N 51°57' E 004°03'0 0.0
2014-Jul-15 07:32N 51°57' E 004°03'0 0.0
2014-Jul-15 06:32N 51°57' E 004°03'0 0.0
2014-Jul-15 05:32N 51°57' E 004°03'0 0.4
2014-Jul-15 04:33N 51°58' E 004°03'3 3.2
2014-Jul-15 03:33N 52°00' E 004°00'10 9.6
2014-Jul-15 02:33N 52°05' E 003°46'1414.0
2014-Jul-15 01:33N 52°19' E 003°47'1917.0
2014-Jul-15 00:27N 52°37' E 003°52'3416.4
2014-Jul-14 22:24N 53°07' E 004°19'1416.8
2014-Jul-14 21:32N 53°20' E 004°31'1515.0
2014-Jul-14 20:34N 53°31' E 004°47'1615.5
2014-Jul-14 19:32N 53°36' E 005°12'1515.7
2014-Jul-14 18:34N 53°41' E 005°36'1716.6
2014-Jul-14 17:32N 53°46' E 006°04'5518.6
2014-Jul-14 14:33N 54°00' E 007°35'1514.6
2014-Jul-14 13:32N 53°52' E 007°56'1616.5
2014-Jul-14 12:33N 53°43' E 008°18'1010.3
2014-Jul-14 11:33N 53°36' E 008°31'0 0.4
2014-Jul-14 10:31N 53°36' E 008°31'0 0.0
2014-Jul-14 09:31N 53°36' E 008°31'0 0.0
2014-Jul-14 08:31N 53°36' E 008°31'0 0.0
2014-Jul-14 07:31N 53°36' E 008°31'0 0.0
2014-Jul-14 06:33N 53°36' E 008°31'0 0.0
2014-Jul-14 05:31N 53°36' E 008°31'0 0.0
2014-Jul-14 04:34N 53°36' E 008°31'0 0.0
2014-Jul-14 03:33N 53°36' E 008°31'0 0.0
2014-Jul-14 02:33N 53°36' E 008°31'0 0.0
2014-Jul-14 01:33N 53°36' E 008°31'0 0.0
2014-Jul-14 00:33N 53°36' E 008°31'0 0.0
2014-Jul-13 23:33N 53°36' E 008°31'0 0.0
2014-Jul-13 22:33N 53°36' E 008°31'0 0.0
2014-Jul-13 21:33N 53°36' E 008°31'0 0.0
2014-Jul-13 20:33N 53°36' E 008°31'0 0.0
2014-Jul-13 19:33N 53°36' E 008°31'0 0.0
2014-Jul-13 18:33N 53°36' E 008°31'0 0.0
2014-Jul-13 17:33N 53°36' E 008°31'0 0.0
2014-Jul-13 16:33N 53°36' E 008°31'0 0.0
2014-Jul-13 15:33N 53°36' E 008°31'0 0.0
2014-Jul-13 14:33N 53°36' E 008°31'0 0.0
2014-Jul-13 13:33N 53°36' E 008°31'0 0.0
2014-Jul-13 12:33N 53°36' E 008°31'0 0.0
2014-Jul-13 11:33N 53°36' E 008°31'0 0.0
2014-Jul-13 10:33N 53°36' E 008°31'0 0.0
2014-Jul-13 09:33N 53°36' E 008°31'0 0.0
2014-Jul-13 08:33N 53°36' E 008°31'0 0.0
2014-Jul-13 07:33N 53°36' E 008°31'0 0.0
2014-Jul-13 06:33N 53°36' E 008°31'0 0.0
2014-Jul-13 05:30N 53°36' E 008°31'0 0.0
2014-Jul-13 04:33N 53°36' E 008°31'0 0.0
2014-Jul-13 03:33N 53°36' E 008°31'2 1.7
2014-Jul-13 02:33N 53°37' E 008°29'1514.6
2014-Jul-13 01:33N 53°47' E 008°10'  
Track history (hours):
 
Tides and Currents Weather Stations Pressure Air Temp Water Temp Dewpoint Dewpoint Depression Visibility Wind Speed Wind Dir Waves Ship Positions

Maersk_kyrenia

Last reported at 2014-Jul-23 00:33 UTC. Time now 2014-Jul-29 14:54 UTC.
Position N 31°04' E 032°19'.

Length 300 m; draft 14.4 m.

MMSI: 477733600.

Date/timePositionNaut miles runAvg speedWind from/ knotsBaromVisibWave heightAir tempDewpointWater temp
2014-Jul-23 00:33N 31°04' E 032°19'9 8.9
2014-Jul-22 23:33N 31°12' E 032°20'9 9.1
2014-Jul-22 22:33N 31°21' E 032°23'7 5.7
2014-Jul-22 21:24N 31°27' E 032°20'0 0.1
2014-Jul-22 20:29N 31°27' E 032°20'0 0.1
2014-Jul-22 19:33N 31°27' E 032°20'3 3.1
2014-Jul-22 18:33N 31°28' E 032°16'1515.4
2014-Jul-22 17:33N 31°39' E 032°04'1818.2
2014-Jul-22 16:34N 31°49' E 031°46'1818.5
2014-Jul-22 15:33N 31°55' E 031°26'2018.7
2014-Jul-22 14:30N 32°03' E 031°04'81919.5
2014-Jul-20 20:34N 36°09' E 015°21'2120.7
2014-Jul-20 19:34N 36°14' E 014°56'2120.7
2014-Jul-20 18:34N 36°22' E 014°32'2120.7
2014-Jul-20 17:34N 36°28' E 014°07'2120.7
2014-Jul-20 16:34N 36°34' E 013°43'2120.5
2014-Jul-20 15:34N 36°40' E 013°18'2120.8
2014-Jul-20 14:34N 36°46' E 012°53'2121.2
2014-Jul-20 13:34N 36°52' E 012°28'2820.2
2014-Jul-20 12:10N 37°02' E 011°55'22919.5
2014-Jul-20 00:26N 37°15' E 007°08'6220.0
2014-Jul-19 21:21N 37°15' E 005°50'4420.7
2014-Jul-19 19:15N 37°15' E 004°56'3419.9
2014-Jul-19 17:33N 37°15' E 004°13'2120.7
2014-Jul-19 16:33N 37°15' E 003°47'4120.4
2014-Jul-19 14:33N 37°15' E 002°56'2120.7
2014-Jul-19 13:33N 37°11' E 002°30'2120.5
2014-Jul-19 12:33N 37°06' E 002°05'2120.0
2014-Jul-19 11:31N 37°02' E 001°40'2020.6
2014-Jul-19 10:33N 36°58' E 001°15'2821.4
2014-Jul-19 09:15N 36°53' E 000°41'1521.7
2014-Jul-19 08:33N 36°49' E 000°23'2520.6
2014-Jul-19 07:19N 36°44' W 000°08'1620.9
2014-Jul-19 06:33N 36°41' W 000°28'2121.4
2014-Jul-19 05:33N 36°37' W 000°55'2421.3
2014-Jul-19 04:26N 36°30' W 001°23'1921.1
2014-Jul-19 03:33N 36°26' W 001°46'2321.1
2014-Jul-19 02:27N 36°22' W 002°14'31621.0
2014-Jul-18 11:25N 36°27' W 008°46'3920.1
2014-Jul-18 09:29N 36°44' W 009°29'2120.4
2014-Jul-18 08:26N 37°04' W 009°38'2421.1
2014-Jul-18 07:17N 37°27' W 009°45'1621.1
2014-Jul-18 06:33N 37°43' W 009°49'2221.5
2014-Jul-18 05:32N 38°04' W 009°56'80419.5
2014-Jul-16 12:17N 50°09' W 001°55'1317.3
2014-Jul-16 11:33N 50°13' W 001°35'1716.9
2014-Jul-16 10:32N 50°17' W 001°10'1817.6
2014-Jul-16 09:33N 50°22' W 000°43'1919.4
2014-Jul-16 08:34N 50°27' W 000°14'2221.5
2014-Jul-16 07:32N 50°33' E 000°19'2121.8
2014-Jul-16 06:33N 50°43' E 000°49'2121.0
2014-Jul-16 05:33N 50°56' E 001°14'1918.6
2014-Jul-16 04:33N 51°07' E 001°38'1615.7
2014-Jul-16 03:33N 51°20' E 001°52'1818.4
2014-Jul-16 02:33N 51°35' E 002°09'2720.1
2014-Jul-16 01:13N 51°55' E 002°39'1421.0
2014-Jul-16 00:33N 52°03' E 002°57'2121.3
2014-Jul-15 23:33N 52°04' E 003°31'1515.0
2014-Jul-15 22:33N 52°01' E 003°56'6 5.8
2014-Jul-15 21:34N 51°57' E 004°03'0 0.0
2014-Jul-15 20:31N 51°57' E 004°03'0 0.0
2014-Jul-15 19:28N 51°57' E 004°03'0 0.0
2014-Jul-15 18:22N 51°57' E 004°03'0 0.0
2014-Jul-15 17:25N 51°57' E 004°03'0 0.0
2014-Jul-15 16:33N 51°57' E 004°03'0 0.0
2014-Jul-15 15:27N 51°57' E 004°03'0 0.0
2014-Jul-15 14:33N 51°57' E 004°03'0 0.0
2014-Jul-15 13:29N 51°57' E 004°03'0 0.0
2014-Jul-15 12:32N 51°57' E 004°03'0 0.0
2014-Jul-15 11:20N 51°57' E 004°03'0 0.0
2014-Jul-15 10:26N 51°57' E 004°03'0 0.0
2014-Jul-15 09:26N 51°57' E 004°03'0 0.0
2014-Jul-15 08:32N 51°57' E 004°03'0 0.0
2014-Jul-15 07:32N 51°57' E 004°03'0 0.0
2014-Jul-15 06:32N 51°57' E 004°03'0 0.0
2014-Jul-15 05:32N 51°57' E 004°03'0 0.4
2014-Jul-15 04:33N 51°58' E 004°03'3 3.2
2014-Jul-15 03:33N 52°00' E 004°00'10 9.6
2014-Jul-15 02:33N 52°05' E 003°46'1414.0
2014-Jul-15 01:33N 52°19' E 003°47'1917.0
2014-Jul-15 00:27N 52°37' E 003°52'3416.4
2014-Jul-14 22:24N 53°07' E 004°19'1416.8
2014-Jul-14 21:32N 53°20' E 004°31'1515.0
2014-Jul-14 20:34N 53°31' E 004°47'1615.5
2014-Jul-14 19:32N 53°36' E 005°12'1515.7
2014-Jul-14 18:34N 53°41' E 005°36'1716.6
2014-Jul-14 17:32N 53°46' E 006°04'5518.6
2014-Jul-14 14:33N 54°00' E 007°35'1514.6
2014-Jul-14 13:32N 53°52' E 007°56'1616.5
2014-Jul-14 12:33N 53°43' E 008°18'1010.3
2014-Jul-14 11:33N 53°36' E 008°31'0 0.4
2014-Jul-14 10:31N 53°36' E 008°31'0 0.0
2014-Jul-14 09:31N 53°36' E 008°31'0 0.0
2014-Jul-14 08:31N 53°36' E 008°31'0 0.0
2014-Jul-14 07:31N 53°36' E 008°31'0 0.0
2014-Jul-14 06:33N 53°36' E 008°31'0 0.0
2014-Jul-14 05:31N 53°36' E 008°31'0 0.0
2014-Jul-14 04:34N 53°36' E 008°31'0 0.0
2014-Jul-14 03:33N 53°36' E 008°31'0 0.0
2014-Jul-14 02:33N 53°36' E 008°31'0 0.0
2014-Jul-14 01:33N 53°36' E 008°31'0 0.0
2014-Jul-14 00:33N 53°36' E 008°31'0 0.0
2014-Jul-13 23:33N 53°36' E 008°31'0 0.0
2014-Jul-13 22:33N 53°36' E 008°31'0 0.0
2014-Jul-13 21:33N 53°36' E 008°31'0 0.0
2014-Jul-13 20:33N 53°36' E 008°31'0 0.0
2014-Jul-13 19:33N 53°36' E 008°31'0 0.0
2014-Jul-13 18:33N 53°36' E 008°31'0 0.0
2014-Jul-13 17:33N 53°36' E 008°31'0 0.0
2014-Jul-13 16:33N 53°36' E 008°31'0 0.0
2014-Jul-13 15:33N 53°36' E 008°31'0 0.0
2014-Jul-13 14:33N 53°36' E 008°31'0 0.0
2014-Jul-13 13:33N 53°36' E 008°31'0 0.0
2014-Jul-13 12:33N 53°36' E 008°31'0 0.0
2014-Jul-13 11:33N 53°36' E 008°31'0 0.0
2014-Jul-13 10:33N 53°36' E 008°31'0 0.0
2014-Jul-13 09:33N 53°36' E 008°31'0 0.0
2014-Jul-13 08:33N 53°36' E 008°31'0 0.0
2014-Jul-13 07:33N 53°36' E 008°31'0 0.0
2014-Jul-13 06:33N 53°36' E 008°31'0 0.0
2014-Jul-13 05:30N 53°36' E 008°31'0 0.0
2014-Jul-13 04:33N 53°36' E 008°31'0 0.0
2014-Jul-13 03:33N 53°36' E 008°31'2 1.7
2014-Jul-13 02:33N 53°37' E 008°29'1514.6
2014-Jul-13 01:33N 53°47' E 008°10'  

Dump ship's entire track history